메인 페이지
METAR-TAF:

METAR-TAF

공항 :

바도다라, 인도

위도: 22-19-46N, 경도: 73-13-10E, 고도: 39m

현재 날씨관측

예보는 26분 전, 00:00시(UTC)에 발표되었습니다.
북북서6kt
온도 27°C
습도 79%
기압 1002 hPa
시정: 6000m
고도 20000ft 상공 구름 보통

METAR: VABO 220000Z 34006KT 6000 SCT200 27/23 Q1002 TEMPO 4000 HZ

시각: 05:56 (00:26 UTC)


TAF: 누락

4,000개 이상의 공항 관측 자료 및 예보 (METAR 및 TAF 보고).

지도상에서 검색 가능한 기상관측소가 노란 점과 빨간 점으로 표시되어 있습니다.

기상관측소 명을 보려면 표시 위로 마우스를 이동하세요.

날씨 관측과 예보를 보려면 클릭하세요.

지도 변경 : 확대하려면 엑스 표시가 있는 녹색 버튼, 축소하려면 빼기 표시가 있는 녹색 버튼, 다음 페이지의 지도를 보려면 녹색 화살표를 클릭하세요.


METAR-TAF: